Time;durP1;ratioP1;P1;durP2;ratioP2;P2;SDS_P1;SDS_P2;PMS_P1;PMS_P2;Temp;Humidity;BMP_temperature;BMP_pressure;BME280_temperature;BME280_humidity;BME280_pressure;Samples;Min_cycle;Max_cycle;Signal;HPM_P1;HPM_P2
2022/07/08 00:02:07;;;;;;;8.53;1.13;;;15.30;99.90;;;;;;5050486;28;20451;-73
2022/07/08 00:04:33;;;;;;;7.82;1.08;;;15.20;99.90;;;;;;5067259;28;20396;-74
2022/07/08 00:06:59;;;;;;;6.37;0.97;;;15.30;99.90;;;;;;5054721;28;20453;-74
2022/07/08 00:09:26;;;;;;;5.60;0.75;;;15.20;99.90;;;;;;5059263;28;20398;-73
2022/07/08 00:11:53;;;;;;;7.75;1.23;;;15.20;99.90;;;;;;5043086;28;20428;-74
2022/07/08 00:14:18;;;;;;;5.18;0.73;;;15.20;99.90;;;;;;5048131;28;20476;-74
2022/07/08 00:16:44;;;;;;;9.20;1.50;;;15.20;99.90;;;;;;5050220;28;20458;-74
2022/07/08 00:19:14;;;;;;;5.93;1.08;;;15.20;99.90;;;;;;5067370;28;20399;-74
2022/07/08 00:21:44;;;;;;;6.25;0.70;;;15.20;99.90;;;;;;5048572;28;20699;-74
2022/07/08 00:24:11;;;;;;;6.40;0.75;;;15.20;99.90;;;;;;5067872;28;20486;-74
2022/07/08 00:26:37;;;;;;;6.90;1.00;;;15.20;99.90;;;;;;5065635;28;20451;-74
2022/07/08 00:29:03;;;;;;;6.85;0.95;;;15.20;99.90;;;;;;5067824;28;20435;-74
2022/07/08 00:31:29;;;;;;;5.80;0.90;;;15.20;99.90;;;;;;5066491;28;20431;-74
2022/07/08 00:33:54;;;;;;;6.13;0.60;;;15.10;99.90;;;;;;5066817;28;20403;-74
2022/07/08 00:36:20;;;;;;;8.43;1.23;;;15.10;99.90;;;;;;5067552;28;20770;-74
2022/07/08 00:38:46;;;;;;;9.23;1.90;;;15.10;99.90;;;;;;5066774;28;20457;-73
2022/07/08 00:41:12;;;;;;;8.48;0.98;;;15.10;99.90;;;;;;5044827;28;20405;-73
2022/07/08 00:43:40;;;;;;;11.10;1.30;;;15.00;99.90;;;;;;5023276;28;21219;-73
2022/07/08 00:46:07;;;;;;;7.10;0.90;;;14.90;99.90;;;;;;5067329;28;20404;-74
2022/07/08 00:48:33;;;;;;;7.05;1.10;;;14.90;99.90;;;;;;5067348;28;20924;-74
2022/07/08 00:51:00;;;;;;;7.55;1.10;;;14.80;99.90;;;;;;5033018;28;20482;-74
2022/07/08 00:53:28;;;;;;;7.18;0.90;;;14.80;99.90;;;;;;5067318;28;20459;-74
2022/07/08 00:55:53;;;;;;;6.70;0.85;;;14.80;99.90;;;;;;5066723;28;20404;-73
2022/07/08 00:58:19;;;;;;;7.85;0.90;;;14.80;99.90;;;;;;5067148;28;20399;-74
2022/07/08 01:00:47;;;;;;;9.57;0.80;;;14.80;99.90;;;;;;5066399;28;20399;-74
2022/07/08 01:03:12;;;;;;;9.88;1.20;;;14.70;99.90;;;;;;5067419;28;20400;-74
2022/07/08 01:05:38;;;;;;;7.77;1.10;;;14.70;99.90;;;;;;5062455;28;20421;-74
2022/07/08 01:08:04;;;;;;;9.18;1.10;;;14.70;99.90;;;;;;5047515;28;20891;-73
2022/07/08 01:10:31;;;;;;;7.03;1.00;;;14.80;99.90;;;;;;5065246;28;20396;-74
2022/07/08 01:12:57;;;;;;;13.32;1.85;;;14.70;99.90;;;;;;5067338;28;21060;-74
2022/07/08 01:15:23;;;;;;;11.27;1.40;;;14.70;99.90;;;;;;5062116;28;20397;-74
2022/07/08 01:17:49;;;;;;;11.25;1.60;;;14.70;99.90;;;;;;5058834;28;20410;-74
2022/07/08 01:20:15;;;;;;;8.65;1.42;;;14.70;99.90;;;;;;5067007;28;20399;-74
2022/07/08 01:22:41;;;;;;;7.68;0.98;;;14.60;99.90;;;;;;5055925;28;20424;-74
2022/07/08 01:25:08;;;;;;;8.38;1.17;;;14.60;99.90;;;;;;5052107;28;20514;-73
2022/07/08 01:27:34;;;;;;;7.70;1.10;;;14.60;99.90;;;;;;5054718;28;20423;-74
2022/07/08 01:29:59;;;;;;;9.07;1.63;;;14.50;99.90;;;;;;5068011;28;20400;-74
2022/07/08 01:32:36;;;;;;;8.10;0.93;;;14.50;99.90;;;;;;5058948;28;20516;-74
2022/07/08 01:35:03;;;;;;;5.28;1.02;;;14.40;99.90;;;;;;5046147;28;20482;-73
2022/07/08 01:37:30;;;;;;;8.20;0.88;;;14.40;99.90;;;;;;5051186;28;20826;-74
2022/07/08 01:39:55;;;;;;;10.27;1.20;;;14.30;99.90;;;;;;5070359;28;20406;-74
2022/07/08 01:42:21;;;;;;;5.65;1.00;;;14.30;99.90;;;;;;5070338;28;20479;-74
2022/07/08 01:44:47;;;;;;;7.03;0.73;;;14.30;99.90;;;;;;5070514;28;20870;-73
2022/07/08 01:47:13;;;;;;;6.20;0.90;;;14.20;99.90;;;;;;5049296;28;20413;-74
2022/07/08 01:49:39;;;;;;;6.22;0.85;;;14.20;99.90;;;;;;5051764;28;20451;-74
2022/07/08 01:52:06;;;;;;;6.28;0.70;;;14.20;99.90;;;;;;5070033;28;20434;-74
2022/07/08 01:54:32;;;;;;;8.55;0.80;;;14.10;99.90;;;;;;5070278;28;20411;-74
2022/07/08 01:57:13;;;;;;;11.77;0.90;;;14.10;99.90;;;;;;5070489;28;20453;-74
2022/07/08 01:59:40;;;;;;;6.57;0.80;;;14.10;99.90;;;;;;5070494;28;20400;-74
2022/07/08 02:02:05;;;;;;;8.07;0.93;;;14.00;99.90;;;;;;5068416;28;20402;-74
2022/07/08 02:04:31;;;;;;;8.20;0.90;;;14.00;99.90;;;;;;5058390;28;20400;-73
2022/07/08 02:06:57;;;;;;;10.18;1.20;;;14.00;99.90;;;;;;5070072;28;20408;-73
2022/07/08 02:09:22;;;;;;;6.67;0.60;;;14.00;99.90;;;;;;5067243;28;20448;-74
2022/07/08 02:14:32;;;;;;;6.35;0.73;;;13.90;99.90;;;;;;5065644;28;20439;-74
2022/07/08 02:16:58;;;;;;;6.93;0.90;;;13.90;99.90;;;;;;5068964;28;20913;-74
2022/07/08 02:19:24;;;;;;;8.70;1.20;;;13.90;99.90;;;;;;5069733;28;20400;-74
2022/07/08 02:21:50;;;;;;;6.15;0.80;;;13.80;99.90;;;;;;5069699;28;20424;-74
2022/07/08 02:24:16;;;;;;;6.82;1.00;;;13.80;99.90;;;;;;5069234;28;20399;-74
2022/07/08 02:26:42;;;;;;;7.22;1.38;;;13.80;99.90;;;;;;5069148;28;20988;-74
2022/07/08 02:29:08;;;;;;;5.07;0.70;;;13.80;99.90;;;;;;5058609;28;20404;-73
2022/07/08 02:31:34;;;;;;;7.78;1.10;;;13.70;99.90;;;;;;5069064;28;20427;-73
2022/07/08 02:34:00;;;;;;;8.95;1.15;;;13.70;99.90;;;;;;5056539;28;20401;-74
2022/07/08 02:36:26;;;;;;;6.85;0.80;;;13.70;99.90;;;;;;5056267;28;20403;-74
2022/07/08 02:38:52;;;;;;;7.43;1.20;;;13.70;99.90;;;;;;5069242;28;20403;-74
2022/07/08 02:41:18;;;;;;;6.05;0.90;;;13.60;99.90;;;;;;5055655;28;20404;-73
2022/07/08 02:43:44;;;;;;;8.30;0.85;;;13.60;99.90;;;;;;5069377;28;20408;-74
2022/07/08 02:46:09;;;;;;;8.03;1.20;;;13.60;99.90;;;;;;5056481;28;20913;-73
2022/07/08 02:48:35;;;;;;;7.07;0.90;;;13.60;99.90;;;;;;5055395;28;20418;-74
2022/07/08 02:51:01;;;;;;;5.90;0.83;;;13.60;99.90;;;;;;5056409;28;20806;-74
2022/07/08 02:53:27;;;;;;;5.93;0.82;;;13.60;99.90;;;;;;5062792;28;20481;-74
2022/07/08 02:55:52;;;;;;;5.63;0.63;;;13.60;99.90;;;;;;5031448;28;20838;-74
2022/07/08 02:58:18;;;;;;;6.57;1.30;;;13.70;99.90;;;;;;5051125;28;20408;-73
2022/07/08 03:00:44;;;;;;;10.13;0.90;;;13.60;99.90;;;;;;5068380;28;20924;-73
2022/07/08 03:03:09;;;;;;;6.63;1.10;;;13.60;99.90;;;;;;5068724;28;20404;-74
2022/07/08 03:05:35;;;;;;;8.37;1.07;;;13.60;99.90;;;;;;5067843;28;20762;-74
2022/07/08 03:08:01;;;;;;;5.97;0.95;;;13.60;99.90;;;;;;5067713;28;20400;-74
2022/07/08 03:10:27;;;;;;;9.88;1.38;;;13.60;99.90;;;;;;5050274;28;20451;-74
2022/07/08 03:12:52;;;;;;;6.45;0.90;;;13.60;99.90;;;;;;5068109;28;20436;-74
2022/07/08 03:15:18;;;;;;;11.17;1.20;;;13.60;99.90;;;;;;5050703;28;20396;-74
2022/07/08 03:17:44;;;;;;;11.13;1.55;;;13.60;99.90;;;;;;5068028;28;20416;-74
2022/07/08 03:20:09;;;;;;;7.43;1.00;;;13.50;99.90;;;;;;5057237;28;20895;-74
2022/07/08 03:22:35;;;;;;;7.07;1.00;;;13.50;99.90;;;;;;5049119;28;20406;-74
2022/07/08 03:25:01;;;;;;;6.68;1.08;;;13.50;99.90;;;;;;5060442;28;20396;-74
2022/07/08 03:27:26;;;;;;;7.90;0.80;;;13.50;99.90;;;;;;5049544;28;20414;-73
2022/07/08 03:29:52;;;;;;;5.85;0.85;;;13.50;99.90;;;;;;5042490;28;20415;-74
2022/07/08 03:32:18;;;;;;;8.77;1.00;;;13.40;99.90;;;;;;5055002;28;20454;-74
2022/07/08 03:34:43;;;;;;;5.97;0.82;;;13.50;99.90;;;;;;5067917;28;20533;-74
2022/07/08 03:37:09;;;;;;;5.70;1.07;;;13.40;99.90;;;;;;5050012;28;20516;-74
2022/07/08 03:39:35;;;;;;;7.72;1.25;;;13.40;99.90;;;;;;5060081;28;20456;-74
2022/07/08 03:42:01;;;;;;;4.93;0.87;;;13.40;99.90;;;;;;5067619;28;20431;-74
2022/07/08 03:44:26;;;;;;;8.05;1.00;;;13.40;99.90;;;;;;5056676;28;20441;-74
2022/07/08 03:46:52;;;;;;;6.03;0.98;;;13.40;99.90;;;;;;5061762;28;20397;-74
2022/07/08 03:49:17;;;;;;;7.30;1.07;;;13.40;99.90;;;;;;5060208;28;20400;-73
2022/07/08 03:51:43;;;;;;;8.03;1.20;;;13.30;99.90;;;;;;5054565;28;20427;-74
2022/07/08 03:54:09;;;;;;;6.90;1.23;;;13.30;99.90;;;;;;5056295;28;20405;-74
2022/07/08 03:56:35;;;;;;;6.85;1.00;;;13.30;99.90;;;;;;5052923;28;20418;-74
2022/07/08 03:59:00;;;;;;;8.40;1.48;;;13.30;99.90;;;;;;5067911;28;20396;-74
2022/07/08 04:01:26;;;;;;;9.80;1.20;;;13.30;99.90;;;;;;5054860;28;20766;-74
2022/07/08 04:03:52;;;;;;;9.35;1.25;;;13.30;99.90;;;;;;5068276;28;20419;-74
2022/07/08 04:06:18;;;;;;;8.97;1.17;;;13.30;99.90;;;;;;5063105;28;20916;-74
2022/07/08 04:08:43;;;;;;;4.32;0.98;;;13.20;99.90;;;;;;5059472;28;21278;-74
2022/07/08 04:11:09;;;;;;;8.00;1.20;;;13.30;99.90;;;;;;5050275;28;20483;-74
2022/07/08 04:13:37;;;;;;;8.43;1.57;;;13.30;99.90;;;;;;5048250;28;20408;-74
2022/07/08 04:16:05;;;;;;;6.97;1.10;;;13.30;99.90;;;;;;5061181;28;20397;-74
2022/07/08 04:18:31;;;;;;;9.20;1.30;;;13.40;99.90;;;;;;5060110;28;20450;-73
2022/07/08 04:20:56;;;;;;;7.10;1.35;;;13.40;99.90;;;;;;5067421;28;20399;-74
2022/07/08 04:23:23;;;;;;;7.65;1.30;;;13.50;99.90;;;;;;5067435;28;20406;-75
2022/07/08 04:25:49;;;;;;;6.70;1.30;;;13.60;99.90;;;;;;5066632;28;20804;-74
2022/07/08 04:28:14;;;;;;;9.07;1.30;;;13.60;99.90;;;;;;5067329;28;20396;-74
2022/07/08 04:30:40;;;;;;;6.70;1.00;;;13.70;99.90;;;;;;5067736;28;20457;-74
2022/07/08 04:33:06;;;;;;;9.23;1.50;;;13.70;99.90;;;;;;5067805;28;20419;-74
2022/07/08 04:35:32;;;;;;;11.48;1.73;;;13.80;99.90;;;;;;5062386;28;20412;-74
2022/07/08 04:37:58;;;;;;;7.55;1.10;;;13.80;99.90;;;;;;5059302;28;20399;-74
2022/07/08 04:40:24;;;;;;;8.07;1.30;;;13.90;99.90;;;;;;5062660;28;20393;-74
2022/07/08 04:42:49;;;;;;;6.78;0.95;;;14.00;99.90;;;;;;5059104;28;20400;-74
2022/07/08 04:45:15;;;;;;;8.67;1.43;;;14.00;99.90;;;;;;5054389;28;20898;-74
2022/07/08 04:47:40;;;;;;;8.77;1.50;;;14.20;99.90;;;;;;5038271;28;20409;-74
2022/07/08 04:50:06;;;;;;;9.63;1.20;;;14.20;99.90;;;;;;5065562;28;20392;-74
2022/07/08 04:52:32;;;;;;;8.60;1.55;;;14.30;99.90;;;;;;5067211;28;21220;-74
2022/07/08 04:54:58;;;;;;;9.13;1.27;;;14.40;99.90;;;;;;5062930;28;20408;-74
2022/07/08 04:57:23;;;;;;;10.50;1.30;;;14.60;99.90;;;;;;5048140;28;20405;-74
2022/07/08 04:59:49;;;;;;;10.35;1.60;;;14.70;99.90;;;;;;5065122;28;20912;-74
2022/07/08 05:02:15;;;;;;;8.73;1.00;;;14.80;99.90;;;;;;5056595;28;20402;-74
2022/07/08 05:04:41;;;;;;;9.75;1.17;;;14.90;99.90;;;;;;5049222;28;20405;-74
2022/07/08 05:07:06;;;;;;;9.13;1.10;;;14.90;99.90;;;;;;5062517;28;20484;-74
2022/07/08 05:09:32;;;;;;;6.87;1.00;;;14.90;99.90;;;;;;5057958;28;20399;-74
2022/07/08 05:11:58;;;;;;;10.75;1.42;;;14.90;99.90;;;;;;5071157;28;20419;-74
2022/07/08 05:14:24;;;;;;;10.07;1.20;;;14.90;99.90;;;;;;5052154;28;20411;-74
2022/07/08 05:16:49;;;;;;;10.50;1.63;;;14.90;99.90;;;;;;5070617;28;20404;-74
2022/07/08 05:19:15;;;;;;;9.15;1.55;;;15.00;99.90;;;;;;5064438;28;20401;-74
2022/07/08 05:21:41;;;;;;;10.13;1.10;;;15.00;99.90;;;;;;5032964;28;20926;-74
2022/07/08 05:24:07;;;;;;;9.82;1.40;;;15.00;99.90;;;;;;5068553;28;20404;-74
2022/07/08 05:26:34;;;;;;;10.25;2.17;;;15.00;99.90;;;;;;5070325;28;20408;-74
2022/07/08 05:29:00;;;;;;;7.27;1.07;;;15.00;99.90;;;;;;5052464;28;20404;-74
2022/07/08 05:31:26;;;;;;;11.27;1.70;;;15.00;99.90;;;;;;5070396;28;20459;-74
2022/07/08 05:33:51;;;;;;;11.65;1.50;;;15.10;99.90;;;;;;5070622;28;20427;-74
2022/07/08 05:36:17;;;;;;;7.25;1.25;;;15.10;99.90;;;;;;5070032;28;20395;-73
2022/07/08 05:38:43;;;;;;;8.00;1.23;;;15.20;99.90;;;;;;5069508;28;20773;-74
2022/07/08 05:41:09;;;;;;;8.18;1.35;;;15.30;99.90;;;;;;5053057;28;20418;-73
2022/07/08 05:43:34;;;;;;;8.27;1.27;;;15.30;99.90;;;;;;5070072;28;21152;-73
2022/07/08 05:46:00;;;;;;;9.13;1.40;;;15.40;99.90;;;;;;5049261;28;20489;-73
2022/07/08 05:48:28;;;;;;;7.53;1.17;;;15.50;99.90;;;;;;5055407;28;20519;-72
2022/07/08 05:50:54;;;;;;;7.93;1.40;;;15.50;99.90;;;;;;5062049;28;20414;-74
2022/07/08 05:53:19;;;;;;;8.73;1.73;;;15.60;99.90;;;;;;5070196;28;20396;-73
2022/07/08 05:55:45;;;;;;;5.83;1.13;;;15.60;99.90;;;;;;5069969;28;20396;-74
2022/07/08 05:58:11;;;;;;;7.03;1.52;;;15.70;99.90;;;;;;5069907;28;20407;-73
2022/07/08 06:00:37;;;;;;;11.80;1.43;;;15.70;99.90;;;;;;5069517;28;20486;-73
2022/07/08 06:03:05;;;;;;;12.50;2.10;;;15.70;99.90;;;;;;5051930;28;20447;-73
2022/07/08 06:05:31;;;;;;;8.88;1.50;;;15.80;99.90;;;;;;5069874;28;20830;-73
2022/07/08 06:07:57;;;;;;;9.23;1.47;;;15.80;99.90;;;;;;5068799;28;20846;-73
2022/07/08 06:10:23;;;;;;;10.82;1.70;;;15.90;99.90;;;;;;5069242;28;20406;-73
2022/07/08 06:12:50;;;;;;;11.20;1.35;;;16.00;99.90;;;;;;5069615;28;20416;-73
2022/07/08 06:15:16;;;;;;;10.95;1.42;;;16.10;99.90;;;;;;5069169;28;20483;-73
2022/07/08 06:17:42;;;;;;;7.93;1.10;;;16.30;99.90;;;;;;5067769;28;20519;-73
2022/07/08 06:20:08;;;;;;;8.82;1.23;;;16.40;99.90;;;;;;5069909;28;20457;-73
2022/07/08 06:22:34;;;;;;;8.63;1.20;;;16.50;99.90;;;;;;5069682;28;20414;-73
2022/07/08 06:25:00;;;;;;;8.32;1.77;;;16.50;99.90;;;;;;5069863;28;20494;-73
2022/07/08 06:27:26;;;;;;;9.70;1.40;;;16.60;99.90;;;;;;5064611;28;20827;-73
2022/07/08 06:29:52;;;;;;;10.88;1.27;;;16.70;99.90;;;;;;5049867;28;20927;-73
2022/07/08 06:32:17;;;;;;;11.00;1.30;;;16.80;99.90;;;;;;5061685;28;20465;-73
2022/07/08 06:34:46;;;;;;;9.65;1.27;;;16.80;99.90;;;;;;5061675;28;20457;-73
2022/07/08 06:37:12;;;;;;;8.10;1.45;;;16.90;99.90;;;;;;5069087;28;20404;-73
2022/07/08 06:39:38;;;;;;;8.65;1.60;;;16.90;99.90;;;;;;5068830;28;20402;-73
2022/07/08 06:42:04;;;;;;;7.20;1.20;;;16.90;99.90;;;;;;5069114;28;20400;-73
2022/07/08 06:44:29;;;;;;;7.57;1.30;;;17.00;99.90;;;;;;5069375;28;20513;-74
2022/07/08 06:46:55;;;;;;;7.85;1.15;;;17.10;99.90;;;;;;5068712;28;20905;-73
2022/07/08 06:49:20;;;;;;;8.73;1.00;;;17.10;99.90;;;;;;5068677;28;20400;-73
2022/07/08 06:51:46;;;;;;;6.80;1.13;;;17.10;99.90;;;;;;5048846;28;20948;-74
2022/07/08 06:56:56;;;;;;;5.75;1.02;;;17.20;99.90;;;;;;5057601;28;20408;-73
2022/07/08 06:59:21;;;;;;;7.00;0.90;;;17.20;99.90;;;;;;5067063;28;20966;-74
2022/07/08 07:01:47;;;;;;;5.03;1.10;;;17.20;99.90;;;;;;5069290;28;20431;-73
2022/07/08 07:04:12;;;;;;;8.35;0.90;;;17.30;99.90;;;;;;5067519;28;20408;-73
2022/07/08 07:06:38;;;;;;;7.17;1.50;;;17.30;99.90;;;;;;5051060;28;20408;-74
2022/07/08 07:09:04;;;;;;;9.90;1.27;;;17.30;99.90;;;;;;5067654;28;20404;-73
2022/07/08 07:11:29;;;;;;;8.23;0.93;;;17.20;99.90;;;;;;5068988;28;20434;-73
2022/07/08 07:13:55;;;;;;;7.63;0.97;;;17.20;99.90;;;;;;5067721;28;21170;-73
2022/07/08 07:16:20;;;;;;;7.03;1.00;;;17.20;99.90;;;;;;5068472;28;20800;-73
2022/07/08 07:18:46;;;;;;;8.47;1.10;;;17.20;99.90;;;;;;5068127;28;20483;-73
2022/07/08 07:21:12;;;;;;;5.70;0.85;;;17.20;99.90;;;;;;5068750;28;20408;-73
2022/07/08 07:23:37;;;;;;;8.63;1.47;;;17.20;99.90;;;;;;5068443;28;21453;-74
2022/07/08 07:26:03;;;;;;;6.05;1.13;;;17.30;99.90;;;;;;5054579;28;20399;-73
2022/07/08 07:28:29;;;;;;;7.87;1.00;;;17.30;99.90;;;;;;5049539;28;20416;-73
2022/07/08 07:30:54;;;;;;;6.80;1.02;;;17.40;99.90;;;;;;5068450;28;20743;-73
2022/07/08 07:33:20;;;;;;;3.63;0.80;;;17.30;99.90;;;;;;5067797;28;21052;-73
2022/07/08 07:35:46;;;;;;;8.30;1.25;;;17.30;99.90;;;;;;5050373;28;20411;-74
2022/07/08 07:38:11;;;;;;;7.47;1.00;;;17.30;99.90;;;;;;5068182;28;20889;-74
2022/07/08 07:40:37;;;;;;;6.38;1.30;;;17.20;99.90;;;;;;5068614;28;20403;-74
2022/07/08 07:43:03;;;;;;;4.77;0.70;;;17.30;99.90;;;;;;5067281;28;20407;-73
2022/07/08 07:45:28;;;;;;;6.93;1.10;;;17.30;99.90;;;;;;5067774;28;20403;-73
2022/07/08 07:47:54;;;;;;;7.28;1.05;;;17.30;99.90;;;;;;5067882;28;20816;-73
2022/07/08 07:50:19;;;;;;;6.97;1.30;;;17.30;99.90;;;;;;5048635;28;20421;-73
2022/07/08 07:52:45;;;;;;;8.15;1.00;;;17.30;99.90;;;;;;5043424;28;20459;-73
2022/07/08 07:55:11;;;;;;;4.77;0.90;;;17.40;99.90;;;;;;5054465;28;20793;-74
2022/07/08 07:57:37;;;;;;;7.55;1.13;;;17.40;99.90;;;;;;5067782;28;20479;-73
2022/07/08 08:00:09;;;;;;;8.32;1.42;;;17.50;99.90;;;;;;5068431;28;20427;-73
2022/07/08 08:02:35;;;;;;;8.68;1.15;;;17.60;99.90;;;;;;5067398;28;20475;-73
2022/07/08 08:05:00;;;;;;;6.40;1.20;;;17.70;99.90;;;;;;5067847;28;20490;-72
2022/07/08 08:07:26;;;;;;;6.03;0.75;;;17.80;99.90;;;;;;5067759;28;20400;-73
2022/07/08 08:09:52;;;;;;;5.88;0.85;;;17.80;99.90;;;;;;5067989;28;20408;-73
2022/07/08 08:12:17;;;;;;;9.00;1.40;;;17.90;99.90;;;;;;5067503;28;20531;-73
2022/07/08 08:14:43;;;;;;;5.90;0.90;;;17.90;99.90;;;;;;5067959;28;20395;-73
2022/07/08 08:17:09;;;;;;;10.27;1.80;;;17.90;99.90;;;;;;5067156;28;21115;-73
2022/07/08 08:19:34;;;;;;;8.70;1.00;;;17.90;99.90;;;;;;5067910;28;21011;-73
2022/07/08 08:22:00;;;;;;;8.10;1.10;;;17.90;99.90;;;;;;5067379;28;20455;-73
2022/07/08 08:24:25;;;;;;;6.77;1.30;;;17.90;99.90;;;;;;5049817;28;20491;-72
2022/07/08 08:26:51;;;;;;;7.83;1.10;;;17.80;99.90;;;;;;5049325;28;20446;-73
2022/07/08 08:29:17;;;;;;;3.75;0.77;;;17.80;99.90;;;;;;5048089;28;20439;-73
2022/07/08 08:31:42;;;;;;;5.20;0.90;;;17.70;99.90;;;;;;5061304;28;20458;-73
2022/07/08 08:34:08;;;;;;;10.23;1.20;;;17.70;99.90;;;;;;5067473;28;20407;-71
2022/07/08 08:36:34;;;;;;;7.18;1.08;;;17.70;99.90;;;;;;5054443;28;20807;-73
2022/07/08 08:39:00;;;;;;;5.20;1.10;;;17.70;99.90;;;;;;5048840;28;20401;-73
2022/07/08 08:41:27;;;;;;;7.63;1.33;;;17.70;99.90;;;;;;5065791;28;20770;-73
2022/07/08 08:43:53;;;;;;;7.53;1.50;;;17.70;99.90;;;;;;5059020;28;20464;-73
2022/07/08 08:46:23;;;;;;;9.48;1.15;;;17.70;99.90;;;;;;5058579;28;20401;-73
2022/07/08 08:48:49;;;;;;;7.88;1.15;;;17.70;99.90;;;;;;5071568;28;20441;-73
2022/07/08 08:51:19;;;;;;;10.43;1.70;;;17.80;99.90;;;;;;5057232;28;20409;-73
2022/07/08 08:53:46;;;;;;;4.93;1.03;;;17.80;99.90;;;;;;5051881;28;20409;-73
2022/07/08 08:56:13;;;;;;;8.50;1.17;;;17.90;99.90;;;;;;5052077;28;20974;-73
2022/07/08 08:58:47;;;;;;;7.30;1.10;;;18.00;99.90;;;;;;5033845;28;20441;-73
2022/07/08 09:01:14;;;;;;;9.20;1.10;;;18.00;99.90;;;;;;5064440;28;20410;-73
2022/07/08 09:03:40;;;;;;;7.05;1.25;;;18.10;99.90;;;;;;5051609;28;20979;-73
2022/07/08 09:06:06;;;;;;;10.93;1.50;;;18.20;99.90;;;;;;5067809;28;20494;-73
2022/07/08 09:08:32;;;;;;;6.60;1.15;;;18.30;99.90;;;;;;5070866;28;20411;-73
2022/07/08 09:10:58;;;;;;;6.20;1.35;;;18.30;99.90;;;;;;5067195;28;20408;-73
2022/07/08 09:13:25;;;;;;;6.85;1.58;;;18.40;99.90;;;;;;5061393;28;20432;-73
2022/07/08 09:15:57;;;;;;;5.88;0.95;;;18.50;99.90;;;;;;5070344;28;20448;-73
2022/07/08 09:18:34;;;;;;;6.30;1.70;;;18.60;99.90;;;;;;5070885;28;20458;-73
2022/07/08 09:21:01;;;;;;;5.50;1.38;;;18.70;99.90;;;;;;5070826;28;20494;-72
2022/07/08 09:23:35;;;;;;;8.37;1.10;;;18.80;99.90;;;;;;5058556;28;20405;-73
2022/07/08 09:26:02;;;;;;;6.55;1.15;;;18.90;99.90;;;;;;5057961;28;20442;-72
2022/07/08 09:28:31;;;;;;;7.10;1.45;;;19.00;99.90;;;;;;5070390;28;21327;-73
2022/07/08 09:30:59;;;;;;;6.30;1.13;;;19.00;99.90;;;;;;5062959;28;20464;-73
2022/07/08 09:33:25;;;;;;;6.07;1.00;;;19.10;99.90;;;;;;5064728;28;21145;-73
2022/07/08 09:35:51;;;;;;;7.70;1.10;;;19.10;99.90;;;;;;5070940;28;20408;-73
2022/07/08 09:38:18;;;;;;;8.03;1.63;;;19.10;99.90;;;;;;5056196;28;20447;-73
2022/07/08 09:41:04;;;;;;;6.97;1.10;;;19.00;99.90;;;;;;5050906;28;20402;-73
2022/07/08 09:43:31;;;;;;;5.60;1.00;;;19.00;99.90;;;;;;5064442;28;20409;-73
2022/07/08 09:46:05;;;;;;;6.50;1.17;;;18.90;99.90;;;;;;5061119;28;20444;-73
2022/07/08 09:48:31;;;;;;;5.78;1.38;;;18.90;99.90;;;;;;5065221;28;20413;-73
2022/07/08 09:50:59;;;;;;;7.45;1.38;;;18.90;99.90;;;;;;5061770;28;20491;-73
2022/07/08 09:53:26;;;;;;;8.43;1.43;;;19.00;99.90;;;;;;5069631;28;20502;-73
2022/07/08 09:55:55;;;;;;;7.30;1.10;;;19.10;99.90;;;;;;5070378;28;20403;-73
2022/07/08 09:58:23;;;;;;;9.52;1.05;;;19.20;99.90;;;;;;5070140;28;20439;-73
2022/07/08 10:00:51;;;;;;;7.38;1.10;;;19.30;99.90;;;;;;5035413;28;20469;-73
2022/07/08 10:03:17;;;;;;;9.80;1.35;;;19.40;99.90;;;;;;5056972;28;20491;-73
2022/07/08 10:05:44;;;;;;;4.78;0.90;;;19.60;99.90;;;;;;5069768;28;20483;-73
2022/07/08 10:08:10;;;;;;;6.35;1.10;;;19.80;99.90;;;;;;5070072;28;20488;-73
2022/07/08 10:10:38;;;;;;;6.15;0.93;;;19.90;99.90;;;;;;5069821;28;20995;-73
2022/07/08 10:13:04;;;;;;;7.07;1.30;;;20.20;99.90;;;;;;5069692;28;20484;-72
2022/07/08 10:15:32;;;;;;;6.68;1.20;;;20.40;99.90;;;;;;5056583;28;20435;-73
2022/07/08 10:18:04;;;;;;;8.10;1.10;;;20.60;99.90;;;;;;5053223;28;20408;-73
2022/07/08 10:20:35;;;;;;;8.40;1.15;;;20.60;99.90;;;;;;5056854;28;20905;-73
2022/07/08 10:23:06;;;;;;;6.80;1.00;;;20.60;99.90;;;;;;5069844;28;20414;-73
2022/07/08 10:25:32;;;;;;;7.20;0.80;;;20.60;99.90;;;;;;5069427;28;20407;-73
2022/07/08 10:28:10;;;;;;;5.93;1.00;;;20.60;99.90;;;;;;5051598;28;20416;-73
2022/07/08 10:30:52;;;;;;;8.23;1.20;;;20.60;99.90;;;;;;5051949;28;20417;-73
2022/07/08 10:33:26;;;;;;;6.30;1.10;;;20.70;99.90;;;;;;5044564;28;20525;-73
2022/07/08 10:36:09;;;;;;;7.13;1.40;;;20.70;99.90;;;;;;5057108;28;21211;-73
2022/07/08 10:38:40;;;;;;;7.15;1.20;;;20.80;99.90;;;;;;5068879;28;20411;-73
2022/07/08 10:41:10;;;;;;;5.70;1.13;;;20.90;99.90;;;;;;5068585;28;20823;-73
2022/07/08 10:43:49;;;;;;;7.53;1.13;;;21.00;99.90;;;;;;5067233;28;20412;-73
2022/07/08 10:46:16;;;;;;;6.80;1.02;;;21.00;99.90;;;;;;5067993;28;20415;-73
2022/07/08 10:48:45;;;;;;;6.63;1.10;;;20.80;99.90;;;;;;5067784;28;20914;-73
2022/07/08 10:51:19;;;;;;;6.53;1.15;;;21.00;99.90;;;;;;5067455;28;20426;-73
2022/07/08 10:53:51;;;;;;;5.93;1.30;;;21.10;99.90;;;;;;5069215;28;20923;-73
2022/07/08 10:56:48;;;;;;;6.45;1.15;;;21.30;99.90;;;;;;5069124;28;20438;-73
2022/07/08 10:59:18;;;;;;;4.03;0.82;;;21.50;99.90;;;;;;5067189;28;20795;-73
2022/07/08 11:02:10;;;;;;;6.25;1.02;;;21.70;99.90;;;;;;5050075;28;20412;-73
2022/07/08 11:04:37;;;;;;;6.47;0.95;;;21.80;99.90;;;;;;5067787;28;20404;-73
2022/07/08 11:07:24;;;;;;;6.47;1.30;;;21.90;99.90;;;;;;5068943;28;20415;-73
2022/07/08 11:09:51;;;;;;;5.18;1.20;;;21.90;99.90;;;;;;5066866;28;21000;-73
2022/07/08 11:12:20;;;;;;;7.28;1.48;;;21.90;99.90;;;;;;5050079;28;20484;-73
2022/07/08 11:14:50;;;;;;;8.40;1.40;;;22.00;99.90;;;;;;5056176;28;20851;-73
2022/07/08 11:17:27;;;;;;;9.70;1.67;;;22.20;99.90;;;;;;5067337;28;20504;-73
2022/07/08 11:19:54;;;;;;;5.63;1.37;;;22.30;99.90;;;;;;5057677;28;20403;-73
2022/07/08 11:22:21;;;;;;;6.82;1.40;;;22.50;99.90;;;;;;5065482;28;20903;-73
2022/07/08 11:24:48;;;;;;;5.93;1.30;;;22.60;99.90;;;;;;5048855;28;20397;-73
2022/07/08 11:27:15;;;;;;;5.68;1.17;;;22.60;99.90;;;;;;5049531;28;20416;-73
2022/07/08 11:29:51;;;;;;;6.73;1.23;;;22.70;99.90;;;;;;5068698;28;20763;-74
2022/07/08 11:32:21;;;;;;;5.63;1.10;;;22.80;99.90;;;;;;5066795;28;20948;-73
2022/07/08 11:34:48;;;;;;;5.60;1.20;;;23.00;99.90;;;;;;5068321;28;20440;-74
2022/07/08 11:37:14;;;;;;;5.85;1.10;;;23.20;99.90;;;;;;5049911;28;20468;-73
2022/07/08 11:39:41;;;;;;;5.43;0.88;;;23.50;99.90;;;;;;5068726;28;20427;-73
2022/07/08 11:42:08;;;;;;;4.82;0.68;;;23.80;99.90;;;;;;5067098;28;20427;-73
2022/07/08 11:44:34;;;;;;;3.72;0.90;;;24.00;99.90;;;;;;5068547;28;20486;-73
2022/07/08 11:47:00;;;;;;;3.30;0.70;;;24.20;99.90;;;;;;5068611;28;20198;-73
2022/07/08 11:49:25;;;;;;;8.20;1.27;;;24.40;99.90;;;;;;5068676;28;20041;-73
2022/07/08 11:51:52;;;;;;;;;;;24.70;99.90;;;;;;5069552;28;20155;-73
2022/07/08 11:54:26;;;;;;;;;;;24.70;99.90;;;;;;5069359;28;20337;-73
2022/07/08 11:56:52;;;;;;;;;;;24.30;99.20;;;;;;5040123;28;19921;-73
2022/07/08 11:59:21;;;;;;;;;;;24.10;99.30;;;;;;5068942;28;20375;-73
2022/07/08 12:01:47;;;;;;;;;;;24.00;99.50;;;;;;5069156;28;19920;-73
2022/07/08 12:04:13;;;;;;;;;;;23.90;99.60;;;;;;5050819;28;20030;-73
2022/07/08 12:06:44;;;;;;;;;;;23.90;99.20;;;;;;5069880;28;20483;-73
2022/07/08 12:09:11;;;;;;;;;;;23.90;99.90;;;;;;5069369;28;19966;-73
2022/07/08 12:11:40;;;;;;;;;;;24.10;99.90;;;;;;5068765;28;19921;-73
2022/07/08 12:14:07;;;;;;;;;;;24.20;99.40;;;;;;5053415;28;19925;-73
2022/07/08 12:16:33;;;;;;;;;;;24.10;99.40;;;;;;5059103;28;19920;-73
2022/07/08 12:19:00;;;;;;;;;;;24.00;99.70;;;;;;5068916;28;19920;-73
2022/07/08 12:21:26;;;;;;;;;;;24.00;99.70;;;;;;5060779;28;20432;-73
2022/07/08 12:24:01;;;;;;;;;;;24.00;99.70;;;;;;5062911;28;19929;-73
2022/07/08 12:26:27;;;;;;;5.35;1.00;;;24.30;99.90;;;;;;5058723;28;19921;-73
2022/07/08 12:28:53;;;;;;;;;;;24.70;99.70;;;;;;5069300;28;20041;-73
2022/07/08 12:31:38;;;;;;;;;;;24.90;98.80;;;;;;5069795;28;20287;-73
2022/07/08 12:34:06;;;;;;;7.75;1.08;;;24.90;98.80;;;;;;5062956;28;19921;-73
2022/07/08 12:36:35;;;;;;;6.68;1.20;;;25.20;99.10;;;;;;5061922;28;20367;-73
2022/07/08 12:39:15;;;;;;;4.55;0.65;;;25.50;99.10;;;;;;5038120;28;20047;-73
2022/07/08 12:41:41;;;;;;;;;;;25.60;98.40;;;;;;5054485;28;20453;-73
2022/07/08 12:44:25;;;;;;;;;;;25.50;98.20;;;;;;5058381;28;20386;-73
2022/07/08 12:46:50;;;;;;;;;;;25.20;98.20;;;;;;5051044;28;19920;-73
2022/07/08 12:49:23;;;;;;;;;;;25.10;98.90;;;;;;5058151;28;19924;-73
2022/07/08 12:51:49;;;;;;;;;;;24.90;98.40;;;;;;5067931;28;20003;-73
2022/07/08 12:54:16;;;;;;;;;;;24.90;98.40;;;;;;5051467;28;20012;-73
2022/07/08 12:56:42;;;;;;;;;;;25.10;98.80;;;;;;5068685;28;20306;-73
2022/07/08 12:59:07;;;;;;;;;;;25.30;98.60;;;;;;5068595;28;19920;-73